Saranac, Michigan
Current Conditions -  °F | °C
As of 4:53 PM on Saturday 25 Oct 2014 (Local Time) from KY70 Reporting Station
Clear Clear  
Wind Chill: 64°   Ceiling: Unl
Heat Index: 64°   Visibility: 10mi
Dew Point: 33°   Wind: 30mph
Humidity: 31%   Direction: 280°W
Pressure: 29.78"   Gusts: 37mph
Location:  42.93°N, 85.21°W
Report Text: KY70 252053Z AUTO 28026G32KT 10SM CLR 18/01 A2978 RMK AO2 T01770005
Loading
Personal Weather Stations






























Interactive Weather Map
Tropical Storm Tracking
New forecast layout! Learn more

10-Day Weather Forecast

Advertisements
Track Severe Weather on mobile